createdAt,value
2022-12-16T00:00:11.185Z,-0.66
2022-12-16T00:02:43.855Z,-0.58
2022-12-16T00:05:16.566Z,-0.62
2022-12-16T00:07:49.601Z,-0.63
2022-12-16T00:10:21.712Z,-0.55
2022-12-16T00:12:53.761Z,-0.57
2022-12-16T00:15:27.090Z,-0.56
2022-12-16T00:17:59.178Z,-0.58
2022-12-16T00:20:31.092Z,-0.62
2022-12-16T00:23:03.000Z,-0.54
2022-12-16T00:25:35.063Z,-0.54
2022-12-16T00:28:06.921Z,-0.56
2022-12-16T00:30:39.535Z,-0.56
2022-12-16T00:33:11.583Z,-0.57
2022-12-16T00:35:46.004Z,-0.55
2022-12-16T00:38:17.650Z,-0.53
2022-12-16T00:40:49.971Z,-0.52
2022-12-16T00:43:23.692Z,-0.46
2022-12-16T00:45:55.806Z,-0.46
2022-12-16T00:48:27.771Z,-0.49
2022-12-16T00:50:59.793Z,-0.47
2022-12-16T00:53:32.278Z,-0.44
2022-12-16T00:56:10.150Z,-0.47
2022-12-16T00:58:42.831Z,-0.43
2022-12-16T01:01:15.088Z,-0.43
2022-12-16T01:03:47.139Z,-0.42
2022-12-16T01:06:19.544Z,-0.43
2022-12-16T01:08:52.120Z,-0.41
2022-12-16T01:11:24.007Z,-0.43
2022-12-16T01:13:55.919Z,-0.42
2022-12-16T01:16:28.114Z,-0.40
2022-12-16T01:19:00.136Z,-0.41
2022-12-16T01:21:32.680Z,-0.33
2022-12-16T01:24:04.598Z,-0.29
2022-12-16T01:26:36.918Z,-0.34
2022-12-16T01:29:08.760Z,-0.34
2022-12-16T01:31:40.643Z,-0.33
2022-12-16T01:34:12.639Z,-0.31
2022-12-16T01:36:45.953Z,-0.33
2022-12-16T01:39:17.950Z,-0.31
2022-12-16T01:41:50.034Z,-0.25
2022-12-16T01:44:25.563Z,-0.23
2022-12-16T01:47:03.941Z,-0.21
2022-12-16T01:49:42.957Z,-0.23
2022-12-16T01:52:27.075Z,-0.23
2022-12-16T01:57:57.315Z,-0.13
2022-12-16T02:00:29.617Z,-0.10
2022-12-16T02:03:02.832Z,-0.16
2022-12-16T02:05:38.095Z,-0.19
2022-12-16T02:08:18.661Z,-0.19
2022-12-16T02:14:03.924Z,-0.14
2022-12-16T02:16:57.430Z,-0.10
2022-12-16T02:19:43.944Z,-0.07
2022-12-16T02:22:30.816Z,-0.12
2022-12-16T02:25:05.764Z,-0.05
2022-12-16T02:30:58.511Z,-0.06
2022-12-16T02:33:39.132Z,-0.07
2022-12-16T02:36:14.167Z,-0.09
2022-12-16T02:39:04.273Z,-0.12
2022-12-16T02:41:55.153Z,-0.09
2022-12-16T02:47:19.395Z,-0.02
2022-12-16T02:49:53.809Z,0.03
2022-12-16T02:52:31.338Z,-0.04
2022-12-16T02:55:06.551Z,-0.04
2022-12-16T02:58:03.828Z,-0.06
2022-12-16T03:03:48.174Z,-0.03
2022-12-16T03:06:22.097Z,-0.01
2022-12-16T03:08:57.247Z,-0.03
2022-12-16T03:11:31.494Z,0.00
2022-12-16T03:14:04.378Z,0.02
2022-12-16T03:16:36.188Z,0.20
2022-12-16T03:19:21.026Z,0.05
2022-12-16T03:21:56.229Z,0.05
2022-12-16T03:24:29.126Z,0.09
2022-12-16T03:27:10.100Z,0.05
2022-12-16T03:29:57.030Z,0.04
2022-12-16T03:32:38.007Z,0.17
2022-12-16T03:38:13.456Z,0.15
2022-12-16T03:40:46.118Z,0.12
2022-12-16T03:43:19.261Z,0.14
2022-12-16T03:45:54.195Z,0.23
2022-12-16T03:48:27.719Z,0.17
2022-12-16T03:53:49.329Z,0.13
2022-12-16T03:56:21.297Z,0.18
2022-12-16T03:58:53.697Z,0.16
2022-12-16T04:01:26.048Z,0.14
2022-12-16T04:03:58.757Z,0.11
2022-12-16T04:06:31.335Z,0.08
2022-12-16T04:12:10.739Z,0.17
2022-12-16T04:15:01.130Z,0.13
2022-12-16T04:17:51.560Z,0.13
2022-12-16T04:20:43.755Z,0.12
2022-12-16T04:23:34.773Z,0.16
2022-12-16T04:26:25.766Z,0.19
2022-12-16T04:28:57.960Z,0.21
2022-12-16T04:31:30.190Z,0.19
2022-12-16T04:34:20.078Z,0.18
2022-12-16T04:37:10.400Z,0.20
2022-12-16T04:40:00.623Z,0.21
2022-12-16T04:45:59.517Z,0.22
2022-12-16T04:48:49.362Z,0.24
2022-12-16T04:51:39.696Z,0.32
2022-12-16T04:54:29.604Z,0.29
2022-12-16T04:57:19.492Z,0.26
2022-12-16T05:00:10.390Z,0.33
2022-12-16T05:03:01.247Z,0.30
2022-12-16T05:05:50.915Z,0.26
2022-12-16T05:08:40.948Z,0.29
2022-12-16T05:11:31.725Z,0.33
2022-12-16T05:14:21.767Z,0.30
2022-12-16T05:17:12.388Z,0.55
2022-12-16T05:20:02.690Z,0.35
2022-12-16T05:22:52.751Z,0.40
2022-12-16T05:25:42.468Z,0.47
2022-12-16T05:28:32.199Z,0.32
2022-12-16T05:34:30.011Z,0.27
2022-12-16T05:37:19.744Z,0.22
2022-12-16T05:40:09.905Z,0.28
2022-12-16T05:43:01.960Z,0.25
2022-12-16T05:45:52.265Z,0.34
2022-12-16T05:48:47.611Z,0.42
2022-12-16T05:51:34.607Z,0.34
2022-12-16T05:54:24.315Z,0.35
2022-12-16T05:57:14.010Z,0.37
2022-12-16T06:00:04.347Z,0.29
2022-12-16T06:02:55.739Z,0.30
2022-12-16T06:05:46.650Z,0.48
2022-12-16T06:08:36.578Z,0.29
2022-12-16T06:11:27.550Z,0.23
2022-12-16T06:14:17.663Z,0.34
2022-12-16T06:17:07.210Z,0.31
2022-12-16T06:19:56.819Z,0.22
2022-12-16T06:22:46.735Z,0.29
2022-12-16T06:25:36.945Z,0.20
2022-12-16T06:28:26.638Z,0.32
2022-12-16T06:31:17.088Z,0.16
2022-12-16T06:34:08.864Z,0.13
2022-12-16T06:36:59.942Z,0.29
2022-12-16T06:39:52.895Z,0.12
2022-12-16T06:42:41.554Z,0.15
2022-12-16T06:45:34.903Z,0.07
2022-12-16T06:48:23.419Z,0.08
2022-12-16T06:51:13.917Z,0.02
2022-12-16T06:54:04.738Z,-0.04
2022-12-16T06:56:54.838Z,0.12
2022-12-16T06:59:44.445Z,0.03
2022-12-16T07:02:34.779Z,0.15
2022-12-16T07:05:25.958Z,0.09
2022-12-16T07:08:15.997Z,-0.05
2022-12-16T07:11:16.188Z,-0.16
2022-12-16T07:13:57.867Z,-0.18
2022-12-16T07:16:47.637Z,-0.15
2022-12-16T07:19:38.156Z,-0.16
2022-12-16T07:22:28.150Z,-0.26
2022-12-16T07:25:17.789Z,-0.27
2022-12-16T07:28:12.299Z,-0.34
2022-12-16T07:31:01.136Z,-0.31
2022-12-16T07:33:51.725Z,-0.33
2022-12-16T07:36:42.568Z,-0.25
2022-12-16T07:39:32.744Z,-0.24
2022-12-16T07:42:22.828Z,-0.22
2022-12-16T07:45:13.355Z,-0.28
2022-12-16T07:48:10.248Z,-0.35
2022-12-16T07:51:00.547Z,-0.33
2022-12-16T07:53:50.860Z,-0.41
2022-12-16T07:56:40.922Z,-0.42
2022-12-16T07:59:32.112Z,-0.25
2022-12-16T08:02:21.964Z,-0.38
2022-12-16T08:05:12.130Z,-0.41
2022-12-16T08:08:02.828Z,-0.41
2022-12-16T08:10:52.567Z,-0.30
2022-12-16T08:13:43.952Z,-0.48
2022-12-16T08:16:33.793Z,-0.41
2022-12-16T08:19:23.999Z,-0.40
2022-12-16T08:22:13.425Z,-0.24
2022-12-16T08:25:03.520Z,-0.43
2022-12-16T08:27:52.372Z,-0.50
2022-12-16T08:30:43.113Z,-0.45
2022-12-16T08:33:33.459Z,-0.41
2022-12-16T08:36:23.917Z,-0.18
2022-12-16T08:39:14.762Z,-0.44
2022-12-16T08:42:05.865Z,-0.47
2022-12-16T08:44:55.956Z,-0.58
2022-12-16T08:47:46.523Z,-0.68
2022-12-16T08:50:36.933Z,-0.60
2022-12-16T08:53:27.205Z,-0.67
2022-12-16T08:56:17.117Z,-0.57
2022-12-16T08:59:06.964Z,-0.72
2022-12-16T09:01:57.547Z,-0.72
2022-12-16T09:04:47.553Z,-0.65
2022-12-16T09:07:38.170Z,-0.63
2022-12-16T09:10:28.267Z,-0.51
2022-12-16T09:13:29.895Z,-0.50
2022-12-16T09:16:20.979Z,-0.71
2022-12-16T09:19:11.062Z,-0.69
2022-12-16T09:22:01.502Z,-0.70
2022-12-16T09:24:51.420Z,-0.73
2022-12-16T09:27:41.278Z,-0.49
2022-12-16T09:30:31.302Z,-0.81
2022-12-16T09:33:21.789Z,-0.84
2022-12-16T09:36:12.029Z,-0.93
2022-12-16T09:38:48.933Z,-0.91
2022-12-16T09:41:53.167Z,-1.01
2022-12-16T09:45:09.090Z,-1.08
2022-12-16T09:48:08.118Z,-1.12
2022-12-16T09:51:03.310Z,-1.09
2022-12-16T09:53:55.164Z,-1.07
2022-12-16T09:56:48.389Z,-1.03
2022-12-16T09:59:47.041Z,-1.06
2022-12-16T10:02:39.073Z,-0.99
2022-12-16T10:05:17.939Z,-1.10
2022-12-16T10:08:18.815Z,-1.06
2022-12-16T10:11:28.770Z,-1.12
2022-12-16T10:14:30.242Z,-1.16
2022-12-16T10:17:34.646Z,-1.06
2022-12-16T10:20:36.079Z,-1.00
2022-12-16T10:23:32.004Z,-0.91
2022-12-16T10:26:28.093Z,-1.05
2022-12-16T10:29:23.514Z,-0.92
2022-12-16T10:32:13.770Z,-1.14
2022-12-16T10:35:03.754Z,-1.11
2022-12-16T10:37:55.587Z,-1.15
2022-12-16T10:40:48.355Z,-1.11
2022-12-16T10:43:56.518Z,-1.17
2022-12-16T10:46:49.277Z,-1.11
2022-12-16T10:49:40.237Z,-1.12
2022-12-16T10:52:33.191Z,-1.18
2022-12-16T10:55:40.466Z,-1.13
2022-12-16T10:58:49.690Z,-1.14
2022-12-16T11:01:46.585Z,-1.05
2022-12-16T11:04:56.104Z,-1.00
2022-12-16T11:08:00.498Z,-1.10
2022-12-16T11:10:56.186Z,-1.12
2022-12-16T11:13:51.267Z,-1.11
2022-12-16T11:16:47.789Z,-1.24
2022-12-16T11:19:50.774Z,-1.31
2022-12-16T11:22:43.248Z,-1.26
2022-12-16T11:25:35.624Z,-1.41
2022-12-16T11:28:31.253Z,-1.45
2022-12-16T11:31:33.230Z,-1.41
2022-12-16T11:34:24.031Z,-1.53
2022-12-16T11:37:19.497Z,-1.51
2022-12-16T11:40:06.862Z,-1.48
2022-12-16T11:43:00.193Z,-1.48
2022-12-16T11:45:49.242Z,-1.46
2022-12-16T11:49:00.036Z,-1.38
2022-12-16T11:52:03.753Z,-1.49
2022-12-16T11:54:50.060Z,-1.56
2022-12-16T11:57:45.383Z,-1.55
2022-12-16T12:00:37.583Z,-1.63
2022-12-16T12:03:30.540Z,-1.59
2022-12-16T12:06:26.084Z,-1.61
2022-12-16T12:09:18.740Z,-1.61
2022-12-16T12:12:17.776Z,-1.64
2022-12-16T12:15:16.123Z,-1.60
2022-12-16T12:18:25.264Z,-1.38
2022-12-16T12:21:22.041Z,-1.55
2022-12-16T12:24:15.496Z,-1.52
2022-12-16T12:27:12.238Z,-1.57
2022-12-16T12:30:13.002Z,-1.62
2022-12-16T12:33:11.618Z,-1.52
2022-12-16T12:36:16.518Z,-1.58
2022-12-16T12:39:24.086Z,-1.71
2022-12-16T12:42:28.592Z,-1.82
2022-12-16T12:45:40.836Z,-1.81
2022-12-16T12:48:36.233Z,-1.73
2022-12-16T12:51:46.675Z,-1.78
2022-12-16T12:54:42.228Z,-1.90
2022-12-16T12:57:35.317Z,-1.74
2022-12-16T13:00:40.430Z,-1.91
2022-12-16T13:03:54.246Z,-2.04
2022-12-16T13:06:44.630Z,-2.08
2022-12-16T13:09:46.527Z,-2.11
2022-12-16T13:12:39.104Z,-1.93
2022-12-16T13:15:31.945Z,-1.99
2022-12-16T13:18:24.703Z,-2.04
2022-12-16T13:21:16.698Z,-2.10
2022-12-16T13:24:07.881Z,-1.98
2022-12-16T13:27:00.496Z,-2.22
2022-12-16T13:29:51.446Z,-2.06
2022-12-16T13:32:44.138Z,-2.17
2022-12-16T13:35:37.924Z,-2.17
2022-12-16T13:38:40.948Z,-2.11
2022-12-16T13:41:51.565Z,-2.19
2022-12-16T13:45:02.157Z,-2.17
2022-12-16T13:48:03.872Z,-2.20
2022-12-16T13:50:59.956Z,-2.24
2022-12-16T13:54:04.572Z,-2.34
2022-12-16T13:56:55.568Z,-2.30
2022-12-16T13:59:48.248Z,-2.14
2022-12-16T14:02:44.018Z,-2.33
2022-12-16T14:05:52.614Z,-2.31
2022-12-16T14:08:45.179Z,-2.22
2022-12-16T14:11:44.412Z,-2.33
2022-12-16T14:14:43.380Z,-2.32
2022-12-16T14:17:36.812Z,-2.28
2022-12-16T14:20:49.992Z,-2.32
2022-12-16T14:23:56.988Z,-2.31
2022-12-16T14:26:46.989Z,-2.31
2022-12-16T14:29:45.710Z,-2.27
2022-12-16T14:32:50.828Z,-2.28
2022-12-16T14:35:45.717Z,-2.25
2022-12-16T14:38:42.207Z,-2.23
2022-12-16T14:41:18.078Z,-2.04
2022-12-16T14:44:08.529Z,-2.13
2022-12-16T14:46:59.737Z,-2.17
2022-12-16T14:49:52.337Z,-2.20
2022-12-16T14:52:44.766Z,-2.17
2022-12-16T14:55:40.599Z,-2.15
2022-12-16T14:58:33.233Z,-2.15
2022-12-16T15:01:35.276Z,-2.16
2022-12-16T15:04:34.300Z,-2.10
2022-12-16T15:07:31.183Z,-2.14
2022-12-16T15:10:19.996Z,-2.12
2022-12-16T15:13:09.734Z,-2.10
2022-12-16T15:16:06.077Z,-2.12
2022-12-16T15:18:59.936Z,-2.08
2022-12-16T15:21:54.919Z,-2.03
2022-12-16T15:24:48.166Z,-2.04
2022-12-16T15:27:46.250Z,-2.08
2022-12-16T15:30:56.816Z,-2.04
2022-12-16T15:33:55.026Z,-2.08
2022-12-16T15:36:50.682Z,-2.10
2022-12-16T15:39:43.169Z,-2.01
2022-12-16T15:42:44.888Z,-2.02
2022-12-16T15:45:48.899Z,-1.97
2022-12-16T15:48:47.117Z,-2.10
2022-12-16T15:51:51.389Z,-2.12
2022-12-16T15:54:43.457Z,-2.10
2022-12-16T15:57:48.220Z,-2.08
2022-12-16T16:00:46.907Z,-2.11
2022-12-16T16:03:45.605Z,-2.09
2022-12-16T16:06:39.313Z,-2.04
2022-12-16T16:09:38.076Z,-2.01
2022-12-16T16:12:30.525Z,-2.01
2022-12-16T16:15:22.726Z,-2.00
2022-12-16T16:18:21.655Z,-1.98
2022-12-16T16:21:11.552Z,-1.95
2022-12-16T16:24:02.661Z,-1.91
2022-12-16T16:26:53.164Z,-1.89
2022-12-16T16:29:43.463Z,-1.87
2022-12-16T16:32:33.735Z,-1.90
2022-12-16T16:35:24.698Z,-1.89
2022-12-16T16:38:18.373Z,-1.87
2022-12-16T16:41:07.826Z,-1.85
2022-12-16T16:43:57.803Z,-1.82
2022-12-16T16:46:53.296Z,-1.81
2022-12-16T16:50:01.894Z,-1.78
2022-12-16T16:52:52.849Z,-1.80
2022-12-16T16:55:43.840Z,-1.76
2022-12-16T16:58:40.069Z,-1.76
2022-12-16T17:01:34.813Z,-1.73
2022-12-16T17:04:24.704Z,-1.70
2022-12-16T17:07:14.718Z,-1.71
2022-12-16T17:10:05.152Z,-1.72
2022-12-16T17:12:58.699Z,-1.72
2022-12-16T17:15:52.005Z,-1.72
2022-12-16T17:18:46.687Z,-1.72
2022-12-16T17:21:34.465Z,-1.73
2022-12-16T17:24:24.872Z,-1.71
2022-12-16T17:27:14.794Z,-1.70
2022-12-16T17:30:04.726Z,-1.67
2022-12-16T17:32:54.071Z,-1.63
2022-12-16T17:35:43.956Z,-1.62
2022-12-16T17:38:34.164Z,-1.61
2022-12-16T17:41:23.669Z,-1.58
2022-12-16T17:44:13.784Z,-1.56
2022-12-16T17:47:03.870Z,-1.55
2022-12-16T17:49:54.009Z,-1.52
2022-12-16T17:52:43.987Z,-1.48
2022-12-16T17:55:34.166Z,-1.45
2022-12-16T17:58:24.163Z,-1.42
2022-12-16T18:01:22.911Z,-1.39
2022-12-16T18:04:13.044Z,-1.37
2022-12-16T18:07:03.432Z,-1.37
2022-12-16T18:09:53.851Z,-1.38
2022-12-16T18:12:44.669Z,-1.35
2022-12-16T18:15:34.677Z,-1.36
2022-12-16T18:18:24.706Z,-1.36
2022-12-16T18:21:14.301Z,-1.33
2022-12-16T18:24:04.367Z,-1.36
2022-12-16T18:26:53.970Z,-1.36
2022-12-16T18:29:43.638Z,-1.39
2022-12-16T18:32:35.462Z,-1.38
2022-12-16T18:35:26.436Z,-1.40
2022-12-16T18:38:16.856Z,-1.39
2022-12-16T18:41:06.768Z,-1.38
2022-12-16T18:43:56.596Z,-1.38
2022-12-16T18:46:46.429Z,-1.39
2022-12-16T18:49:36.219Z,-1.36
2022-12-16T18:52:26.033Z,-1.36
2022-12-16T18:55:16.174Z,-1.37
2022-12-16T18:58:02.104Z,-1.37
2022-12-16T19:00:52.478Z,-1.36
2022-12-16T19:03:42.065Z,-1.40
2022-12-16T19:06:32.001Z,-1.38
2022-12-16T19:09:21.862Z,-1.41
2022-12-16T19:12:11.502Z,-1.40
2022-12-16T19:15:01.453Z,-1.41
2022-12-16T19:17:51.896Z,-1.41
2022-12-16T19:20:42.032Z,-1.41
2022-12-16T19:23:33.948Z,-1.39
2022-12-16T19:26:23.879Z,-1.36
2022-12-16T19:29:13.786Z,-1.33
2022-12-16T19:32:03.726Z,-1.32
2022-12-16T19:34:54.148Z,-1.31
2022-12-16T19:37:45.606Z,-1.36
2022-12-16T19:40:35.361Z,-1.38
2022-12-16T19:43:25.677Z,-1.37
2022-12-16T19:46:16.122Z,-1.40
2022-12-16T19:49:05.984Z,-1.38
2022-12-16T19:51:56.248Z,-1.42
2022-12-16T19:54:46.341Z,-1.41
2022-12-16T19:57:36.219Z,-1.42
2022-12-16T20:00:26.647Z,-1.38
2022-12-16T20:03:16.835Z,-1.44
2022-12-16T20:06:08.812Z,-1.48
2022-12-16T20:08:58.952Z,-1.50
2022-12-16T20:11:48.525Z,-1.56
2022-12-16T20:14:38.715Z,-1.56
2022-12-16T20:17:29.062Z,-1.61
2022-12-16T20:20:18.964Z,-1.63
2022-12-16T20:23:09.049Z,-1.65
2022-12-16T20:25:59.043Z,-1.67
2022-12-16T20:28:49.519Z,-1.70
2022-12-16T20:31:39.613Z,-1.64
2022-12-16T20:34:29.320Z,-1.70
2022-12-16T20:37:18.990Z,-1.72
2022-12-16T20:40:08.974Z,-1.77
2022-12-16T20:42:59.863Z,-1.81
2022-12-16T20:45:50.028Z,-1.82
2022-12-16T20:48:39.883Z,-1.83
2022-12-16T20:51:29.633Z,-1.83
2022-12-16T20:54:19.327Z,-1.81
2022-12-16T20:57:13.004Z,-1.80
2022-12-16T21:00:03.165Z,-1.76
2022-12-16T21:02:53.500Z,-1.75
2022-12-16T21:05:44.603Z,-1.75
2022-12-16T21:08:34.401Z,-1.73
2022-12-16T21:11:23.802Z,-1.70
2022-12-16T21:14:13.794Z,-1.73
2022-12-16T21:17:03.644Z,-1.72
2022-12-16T21:19:53.362Z,-1.70
2022-12-16T21:22:44.648Z,-1.69
2022-12-16T21:25:34.086Z,-1.67
2022-12-16T21:28:23.634Z,-1.65
2022-12-16T21:31:14.379Z,-1.64
2022-12-16T21:34:04.048Z,-1.64
2022-12-16T21:36:53.980Z,-1.62
2022-12-16T21:39:45.403Z,-1.61
2022-12-16T21:42:37.667Z,-1.59
2022-12-16T21:45:26.038Z,-1.61
2022-12-16T21:48:15.930Z,-1.61
2022-12-16T21:51:10.747Z,-1.63
2022-12-16T21:54:06.319Z,-1.60
2022-12-16T21:56:52.359Z,-1.59
2022-12-16T21:59:45.765Z,-1.59
2022-12-16T22:02:35.118Z,-1.58
2022-12-16T22:05:26.358Z,-1.58
2022-12-16T22:08:16.211Z,-1.59
2022-12-16T22:11:05.703Z,-1.58
2022-12-16T22:13:56.276Z,-1.58
2022-12-16T22:16:45.988Z,-1.56
2022-12-16T22:19:35.628Z,-1.58
2022-12-16T22:22:25.511Z,-1.55
2022-12-16T22:25:15.429Z,-1.53
2022-12-16T22:28:04.969Z,-1.51
2022-12-16T22:30:56.349Z,-1.51
2022-12-16T22:33:46.041Z,-1.53
2022-12-16T22:36:35.764Z,-1.53
2022-12-16T22:39:25.662Z,-1.52
2022-12-16T22:42:15.594Z,-1.50
2022-12-16T22:45:05.590Z,-1.56
2022-12-16T22:47:55.198Z,-1.56
2022-12-16T22:50:45.722Z,-1.57
2022-12-16T22:53:35.510Z,-1.57
2022-12-16T22:56:25.164Z,-1.57
2022-12-16T22:59:14.727Z,-1.57
2022-12-16T23:02:04.628Z,-1.54
2022-12-16T23:04:54.916Z,-1.55
2022-12-16T23:07:46.316Z,-1.55
2022-12-16T23:10:36.492Z,-1.51
2022-12-16T23:13:27.196Z,-1.56
2022-12-16T23:16:17.010Z,-1.57
2022-12-16T23:19:06.551Z,-1.55
2022-12-16T23:21:56.363Z,-1.57
2022-12-16T23:24:46.135Z,-1.58
2022-12-16T23:27:35.916Z,-1.59
2022-12-16T23:30:26.420Z,-1.60
2022-12-16T23:33:18.039Z,-1.61
2022-12-16T23:36:08.086Z,-1.59
2022-12-16T23:38:58.091Z,-1.62
2022-12-16T23:41:47.629Z,-1.64
2022-12-16T23:44:37.497Z,-1.62
2022-12-16T23:47:27.214Z,-1.62
2022-12-16T23:50:16.898Z,-1.63
2022-12-16T23:53:06.399Z,-1.66
2022-12-16T23:55:56.204Z,-1.68
2022-12-16T23:58:46.048Z,-1.70
